sensor_id;sensor_type;location;lat;lon;timestamp;P1;durP1;ratioP1;P2;durP2;ratioP2
64469;SDS011;50854;48.538;14.352;2023-05-08T00:00:07;11.23;;;7.20;;
64469;SDS011;50854;48.538;14.352;2023-05-08T00:01:08;9.15;;;6.05;;
64469;SDS011;50854;48.538;14.352;2023-05-08T00:02:08;13.67;;;6.80;;
64469;SDS011;50854;48.538;14.352;2023-05-08T00:03:08;16.50;;;7.47;;
64469;SDS011;50854;48.538;14.352;2023-05-08T00:04:09;8.73;;;6.23;;
64469;SDS011;50854;48.538;14.352;2023-05-08T00:05:09;11.57;;;7.63;;
64469;SDS011;50854;48.538;14.352;2023-05-08T00:06:10;12.25;;;7.90;;
64469;SDS011;50854;48.538;14.352;2023-05-08T00:07:10;13.20;;;7.93;;
64469;SDS011;50854;48.538;14.352;2023-05-08T00:08:10;12.73;;;7.30;;
64469;SDS011;50854;48.538;14.352;2023-05-08T00:09:10;11.47;;;7.03;;
64469;SDS011;50854;48.538;14.352;2023-05-08T00:10:11;11.75;;;8.55;;
64469;SDS011;50854;48.538;14.352;2023-05-08T00:11:12;12.47;;;7.07;;
64469;SDS011;50854;48.538;14.352;2023-05-08T00:12:12;12.97;;;7.90;;
64469;SDS011;50854;48.538;14.352;2023-05-08T00:13:12;11.63;;;6.87;;
64469;SDS011;50854;48.538;14.352;2023-05-08T00:14:12;12.00;;;7.90;;
64469;SDS011;50854;48.538;14.352;2023-05-08T00:15:12;14.13;;;8.13;;
64469;SDS011;50854;48.538;14.352;2023-05-08T00:16:13;10.97;;;7.80;;
64469;SDS011;50854;48.538;14.352;2023-05-08T00:17:13;14.80;;;8.60;;
64469;SDS011;50854;48.538;14.352;2023-05-08T00:18:13;12.97;;;8.60;;
64469;SDS011;50854;48.538;14.352;2023-05-08T00:19:14;12.30;;;7.83;;
64469;SDS011;50854;48.538;14.352;2023-05-08T00:20:15;12.00;;;7.50;;
64469;SDS011;50854;48.538;14.352;2023-05-08T00:21:16;14.63;;;7.57;;
64469;SDS011;50854;48.538;14.352;2023-05-08T00:22:16;15.32;;;8.55;;
64469;SDS011;50854;48.538;14.352;2023-05-08T00:23:16;11.77;;;8.50;;
64469;SDS011;50854;48.538;14.352;2023-05-08T00:24:17;12.37;;;8.40;;
64469;SDS011;50854;48.538;14.352;2023-05-08T00:25:17;12.03;;;7.97;;
64469;SDS011;50854;48.538;14.352;2023-05-08T00:26:17;12.80;;;7.97;;
64469;SDS011;50854;48.538;14.352;2023-05-08T00:27:17;12.93;;;8.10;;
64469;SDS011;50854;48.538;14.352;2023-05-08T00:28:18;14.77;;;8.03;;
64469;SDS011;50854;48.538;14.352;2023-05-08T00:29:18;10.03;;;6.80;;
64469;SDS011;50854;48.538;14.352;2023-05-08T00:30:18;13.53;;;8.30;;
64469;SDS011;50854;48.538;14.352;2023-05-08T00:31:19;14.73;;;7.70;;
64469;SDS011;50854;48.538;14.352;2023-05-08T00:32:19;14.48;;;8.32;;
64469;SDS011;50854;48.538;14.352;2023-05-08T00:33:20;15.53;;;8.90;;
64469;SDS011;50854;48.538;14.352;2023-05-08T00:34:20;14.60;;;8.53;;
64469;SDS011;50854;48.538;14.352;2023-05-08T00:35:20;12.70;;;8.43;;
64469;SDS011;50854;48.538;14.352;2023-05-08T00:36:20;13.07;;;8.17;;
64469;SDS011;50854;48.538;14.352;2023-05-08T00:37:21;12.27;;;8.30;;
64469;SDS011;50854;48.538;14.352;2023-05-08T00:38:21;15.50;;;9.27;;
64469;SDS011;50854;48.538;14.352;2023-05-08T00:39:21;13.03;;;8.63;;
64469;SDS011;50854;48.538;14.352;2023-05-08T00:40:21;13.97;;;7.30;;
64469;SDS011;50854;48.538;14.352;2023-05-08T00:41:22;13.97;;;8.30;;
64469;SDS011;50854;48.538;14.352;2023-05-08T00:42:22;13.77;;;8.40;;
64469;SDS011;50854;48.538;14.352;2023-05-08T00:43:22;12.10;;;8.60;;
64469;SDS011;50854;48.538;14.352;2023-05-08T00:44:25;15.63;;;9.15;;
64469;SDS011;50854;48.538;14.352;2023-05-08T00:45:31;13.23;;;8.93;;
64469;SDS011;50854;48.538;14.352;2023-05-08T00:46:32;13.38;;;8.50;;
64469;SDS011;50854;48.538;14.352;2023-05-08T00:47:32;15.80;;;8.83;;
64469;SDS011;50854;48.538;14.352;2023-05-08T00:48:33;14.57;;;8.45;;
64469;SDS011;50854;48.538;14.352;2023-05-08T00:49:33;13.20;;;7.93;;
64469;SDS011;50854;48.538;14.352;2023-05-08T00:50:34;13.38;;;8.23;;
64469;SDS011;50854;48.538;14.352;2023-05-08T00:51:35;14.77;;;8.03;;
64469;SDS011;50854;48.538;14.352;2023-05-08T00:52:35;15.15;;;9.32;;
64469;SDS011;50854;48.538;14.352;2023-05-08T00:53:37;13.57;;;8.18;;
64469;SDS011;50854;48.538;14.352;2023-05-08T00:54:38;15.13;;;9.35;;
64469;SDS011;50854;48.538;14.352;2023-05-08T00:55:38;14.10;;;8.77;;
64469;SDS011;50854;48.538;14.352;2023-05-08T00:56:38;14.97;;;9.07;;
64469;SDS011;50854;48.538;14.352;2023-05-08T00:57:39;12.77;;;8.20;;
64469;SDS011;50854;48.538;14.352;2023-05-08T00:58:40;15.40;;;9.60;;
64469;SDS011;50854;48.538;14.352;2023-05-08T00:59:41;14.82;;;9.13;;
64469;SDS011;50854;48.538;14.352;2023-05-08T01:01:42;16.17;;;8.35;;
64469;SDS011;50854;48.538;14.352;2023-05-08T01:02:43;15.85;;;9.48;;
64469;SDS011;50854;48.538;14.352;2023-05-08T01:03:43;18.17;;;9.95;;
64469;SDS011;50854;48.538;14.352;2023-05-08T01:04:44;15.73;;;9.13;;
64469;SDS011;50854;48.538;14.352;2023-05-08T01:05:45;16.42;;;9.05;;
64469;SDS011;50854;48.538;14.352;2023-05-08T01:06:45;14.63;;;9.23;;
64469;SDS011;50854;48.538;14.352;2023-05-08T01:07:45;16.17;;;9.83;;
64469;SDS011;50854;48.538;14.352;2023-05-08T01:08:46;17.30;;;8.87;;
64469;SDS011;50854;48.538;14.352;2023-05-08T01:09:46;16.50;;;9.37;;
64469;SDS011;50854;48.538;14.352;2023-05-08T01:12:00;13.73;;;9.00;;
64469;SDS011;50854;48.538;14.352;2023-05-08T01:15:28;22.17;;;9.17;;
64469;SDS011;50854;48.538;14.352;2023-05-08T01:17:18;18.10;;;9.23;;
64469;SDS011;50854;48.538;14.352;2023-05-08T01:21:53;14.70;;;8.87;;
64469;SDS011;50854;48.538;14.352;2023-05-08T01:25:21;14.25;;;9.52;;
64469;SDS011;50854;48.538;14.352;2023-05-08T01:31:11;12.85;;;8.65;;
64469;SDS011;50854;48.538;14.352;2023-05-08T01:33:19;14.45;;;9.23;;
64469;SDS011;50854;48.538;14.352;2023-05-08T01:34:23;13.02;;;8.80;;
64469;SDS011;50854;48.538;14.352;2023-05-08T01:35:29;12.60;;;7.80;;
64469;SDS011;50854;48.538;14.352;2023-05-08T01:36:33;13.18;;;8.52;;
64469;SDS011;50854;48.538;14.352;2023-05-08T01:37:38;13.75;;;9.10;;
64469;SDS011;50854;48.538;14.352;2023-05-08T01:38:39;18.95;;;9.38;;
64469;SDS011;50854;48.538;14.352;2023-05-08T01:39:46;13.15;;;8.50;;
64469;SDS011;50854;48.538;14.352;2023-05-08T01:42:01;18.93;;;9.47;;
64469;SDS011;50854;48.538;14.352;2023-05-08T01:43:11;15.70;;;9.45;;
64469;SDS011;50854;48.538;14.352;2023-05-08T01:45:28;14.60;;;9.00;;
64469;SDS011;50854;48.538;14.352;2023-05-08T01:46:31;11.95;;;7.97;;
64469;SDS011;50854;48.538;14.352;2023-05-08T13:46:05;4.55;;;3.55;;
64469;SDS011;50854;48.538;14.352;2023-05-08T13:47:05;4.43;;;3.80;;
64469;SDS011;50854;48.538;14.352;2023-05-08T13:48:05;5.77;;;3.90;;
64469;SDS011;50854;48.538;14.352;2023-05-08T13:49:06;5.20;;;3.23;;
64469;SDS011;50854;48.538;14.352;2023-05-08T13:50:09;6.40;;;4.37;;
64469;SDS011;50854;48.538;14.352;2023-05-08T13:51:09;6.53;;;3.97;;
64469;SDS011;50854;48.538;14.352;2023-05-08T13:52:09;7.67;;;4.33;;
64469;SDS011;50854;48.538;14.352;2023-05-08T13:53:09;5.30;;;4.00;;
64469;SDS011;50854;48.538;14.352;2023-05-08T13:54:10;6.20;;;4.53;;
64469;SDS011;50854;48.538;14.352;2023-05-08T13:55:10;6.40;;;4.33;;
64469;SDS011;50854;48.538;14.352;2023-05-08T13:56:11;6.20;;;3.72;;
64469;SDS011;50854;48.538;14.352;2023-05-08T13:57:11;8.43;;;5.63;;
64469;SDS011;50854;48.538;14.352;2023-05-08T13:58:11;5.53;;;3.83;;
64469;SDS011;50854;48.538;14.352;2023-05-08T13:59:12;5.47;;;3.83;;
64469;SDS011;50854;48.538;14.352;2023-05-08T14:00:12;5.60;;;4.07;;
64469;SDS011;50854;48.538;14.352;2023-05-08T14:01:13;7.90;;;4.50;;
64469;SDS011;50854;48.538;14.352;2023-05-08T14:02:13;7.93;;;4.50;;
64469;SDS011;50854;48.538;14.352;2023-05-08T14:03:13;6.33;;;4.50;;
64469;SDS011;50854;48.538;14.352;2023-05-08T14:04:14;5.63;;;4.20;;
64469;SDS011;50854;48.538;14.352;2023-05-08T14:05:14;6.97;;;4.30;;
64469;SDS011;50854;48.538;14.352;2023-05-08T14:06:14;6.27;;;5.00;;
64469;SDS011;50854;48.538;14.352;2023-05-08T14:07:15;13.15;;;4.97;;
64469;SDS011;50854;48.538;14.352;2023-05-08T14:08:17;5.75;;;4.20;;
64469;SDS011;50854;48.538;14.352;2023-05-08T14:09:17;8.53;;;5.87;;
64469;SDS011;50854;48.538;14.352;2023-05-08T14:10:17;8.13;;;4.47;;
64469;SDS011;50854;48.538;14.352;2023-05-08T14:11:18;6.20;;;4.47;;
64469;SDS011;50854;48.538;14.352;2023-05-08T14:12:18;5.50;;;4.33;;
64469;SDS011;50854;48.538;14.352;2023-05-08T14:13:18;5.27;;;4.10;;
64469;SDS011;50854;48.538;14.352;2023-05-08T14:14:18;5.23;;;3.87;;
64469;SDS011;50854;48.538;14.352;2023-05-08T14:15:19;6.57;;;3.90;;
64469;SDS011;50854;48.538;14.352;2023-05-08T14:16:19;5.20;;;4.00;;
64469;SDS011;50854;48.538;14.352;2023-05-08T14:17:19;5.60;;;4.40;;
64469;SDS011;50854;48.538;14.352;2023-05-08T14:18:19;6.27;;;4.37;;
64469;SDS011;50854;48.538;14.352;2023-05-08T14:19:20;6.20;;;4.50;;
64469;SDS011;50854;48.538;14.352;2023-05-08T14:20:20;8.13;;;4.10;;
64469;SDS011;50854;48.538;14.352;2023-05-08T14:21:20;8.87;;;4.33;;
64469;SDS011;50854;48.538;14.352;2023-05-08T14:22:20;6.40;;;3.93;;
64469;SDS011;50854;48.538;14.352;2023-05-08T14:23:21;14.43;;;3.83;;
64469;SDS011;50854;48.538;14.352;2023-05-08T14:24:21;7.20;;;3.87;;
64469;SDS011;50854;48.538;14.352;2023-05-08T14:25:21;4.27;;;3.67;;
64469;SDS011;50854;48.538;14.352;2023-05-08T14:26:22;4.30;;;3.90;;
64469;SDS011;50854;48.538;14.352;2023-05-08T14:27:22;4.13;;;3.30;;
64469;SDS011;50854;48.538;14.352;2023-05-08T14:28:22;5.87;;;4.00;;
64469;SDS011;50854;48.538;14.352;2023-05-08T14:29:22;5.20;;;3.80;;
64469;SDS011;50854;48.538;14.352;2023-05-08T14:30:23;5.50;;;3.80;;
64469;SDS011;50854;48.538;14.352;2023-05-08T14:31:23;4.97;;;4.00;;
64469;SDS011;50854;48.538;14.352;2023-05-08T14:32:23;6.47;;;3.67;;
64469;SDS011;50854;48.538;14.352;2023-05-08T14:33:23;7.27;;;3.80;;
64469;SDS011;50854;48.538;14.352;2023-05-08T14:34:24;5.30;;;3.97;;
64469;SDS011;50854;48.538;14.352;2023-05-08T14:35:24;6.13;;;3.60;;
64469;SDS011;50854;48.538;14.352;2023-05-08T14:36:24;5.40;;;3.90;;
64469;SDS011;50854;48.538;14.352;2023-05-08T14:37:26;5.43;;;3.65;;
64469;SDS011;50854;48.538;14.352;2023-05-08T14:38:26;4.57;;;3.37;;
64469;SDS011;50854;48.538;14.352;2023-05-08T14:39:26;9.37;;;4.10;;
64469;SDS011;50854;48.538;14.352;2023-05-08T14:40:27;7.67;;;3.80;;
64469;SDS011;50854;48.538;14.352;2023-05-08T14:41:27;5.00;;;3.70;;
64469;SDS011;50854;48.538;14.352;2023-05-08T14:42:28;4.20;;;3.65;;
64469;SDS011;50854;48.538;14.352;2023-05-08T14:43:28;14.70;;;4.10;;
64469;SDS011;50854;48.538;14.352;2023-05-08T14:44:28;6.00;;;4.43;;
64469;SDS011;50854;48.538;14.352;2023-05-08T14:45:28;4.93;;;3.90;;
64469;SDS011;50854;48.538;14.352;2023-05-08T14:46:29;5.13;;;3.60;;
64469;SDS011;50854;48.538;14.352;2023-05-08T14:47:29;8.13;;;4.60;;
64469;SDS011;50854;48.538;14.352;2023-05-08T14:48:31;4.40;;;3.45;;
64469;SDS011;50854;48.538;14.352;2023-05-08T14:49:32;3.73;;;3.37;;
64469;SDS011;50854;48.538;14.352;2023-05-08T14:50:32;5.37;;;3.57;;
64469;SDS011;50854;48.538;14.352;2023-05-08T14:51:32;5.27;;;3.80;;
64469;SDS011;50854;48.538;14.352;2023-05-08T14:52:32;5.23;;;3.43;;
64469;SDS011;50854;48.538;14.352;2023-05-08T14:53:33;4.33;;;3.10;;
64469;SDS011;50854;48.538;14.352;2023-05-08T14:54:33;5.10;;;3.47;;
64469;SDS011;50854;48.538;14.352;2023-05-08T14:55:33;4.57;;;3.40;;
64469;SDS011;50854;48.538;14.352;2023-05-08T14:56:34;7.17;;;4.43;;
64469;SDS011;50854;48.538;14.352;2023-05-08T14:57:34;9.10;;;3.47;;
64469;SDS011;50854;48.538;14.352;2023-05-08T14:58:34;12.37;;;3.70;;
64469;SDS011;50854;48.538;14.352;2023-05-08T14:59:34;6.43;;;3.53;;
64469;SDS011;50854;48.538;14.352;2023-05-08T15:00:35;4.73;;;3.60;;
64469;SDS011;50854;48.538;14.352;2023-05-08T15:01:35;10.87;;;3.33;;
64469;SDS011;50854;48.538;14.352;2023-05-08T15:02:35;4.63;;;3.47;;
64469;SDS011;50854;48.538;14.352;2023-05-08T15:03:35;6.17;;;3.43;;
64469;SDS011;50854;48.538;14.352;2023-05-08T15:04:36;5.20;;;3.17;;
64469;SDS011;50854;48.538;14.352;2023-05-08T15:05:40;4.60;;;3.22;;
64469;SDS011;50854;48.538;14.352;2023-05-08T15:06:40;5.83;;;3.33;;
64469;SDS011;50854;48.538;14.352;2023-05-08T15:07:40;10.13;;;5.03;;
64469;SDS011;50854;48.538;14.352;2023-05-08T15:08:41;5.27;;;3.87;;
64469;SDS011;50854;48.538;14.352;2023-05-08T15:09:41;5.23;;;3.53;;
64469;SDS011;50854;48.538;14.352;2023-05-08T15:10:41;4.63;;;3.90;;
64469;SDS011;50854;48.538;14.352;2023-05-08T15:11:41;5.33;;;4.00;;
64469;SDS011;50854;48.538;14.352;2023-05-08T15:12:42;4.10;;;3.10;;
64469;SDS011;50854;48.538;14.352;2023-05-08T15:13:42;6.93;;;3.60;;
64469;SDS011;50854;48.538;14.352;2023-05-08T15:14:42;3.97;;;3.30;;
64469;SDS011;50854;48.538;14.352;2023-05-08T15:15:42;3.03;;;2.23;;
64469;SDS011;50854;48.538;14.352;2023-05-08T15:16:43;6.70;;;3.03;;
64469;SDS011;50854;48.538;14.352;2023-05-08T15:17:43;4.30;;;3.30;;
64469;SDS011;50854;48.538;14.352;2023-05-08T15:18:43;4.63;;;3.40;;
64469;SDS011;50854;48.538;14.352;2023-05-08T15:19:43;3.93;;;2.83;;
64469;SDS011;50854;48.538;14.352;2023-05-08T15:20:44;4.45;;;3.00;;
64469;SDS011;50854;48.538;14.352;2023-05-08T15:21:45;8.57;;;3.20;;
64469;SDS011;50854;48.538;14.352;2023-05-08T15:22:45;3.90;;;2.87;;
64469;SDS011;50854;48.538;14.352;2023-05-08T15:23:45;5.07;;;3.23;;
64469;SDS011;50854;48.538;14.352;2023-05-08T15:24:45;5.10;;;3.00;;
64469;SDS011;50854;48.538;14.352;2023-05-08T15:25:46;5.33;;;2.83;;
64469;SDS011;50854;48.538;14.352;2023-05-08T15:26:46;3.33;;;2.83;;
64469;SDS011;50854;48.538;14.352;2023-05-08T15:27:46;4.70;;;3.00;;
64469;SDS011;50854;48.538;14.352;2023-05-08T15:28:51;4.35;;;3.47;;
64469;SDS011;50854;48.538;14.352;2023-05-08T15:29:51;6.03;;;3.00;;
64469;SDS011;50854;48.538;14.352;2023-05-08T15:30:52;5.43;;;3.07;;
64469;SDS011;50854;48.538;14.352;2023-05-08T15:31:52;3.37;;;2.90;;
64469;SDS011;50854;48.538;14.352;2023-05-08T15:32:52;3.60;;;3.00;;
64469;SDS011;50854;48.538;14.352;2023-05-08T15:33:53;3.83;;;3.20;;
64469;SDS011;50854;48.538;14.352;2023-05-08T15:34:53;4.07;;;3.17;;
64469;SDS011;50854;48.538;14.352;2023-05-08T15:35:53;4.50;;;3.20;;
64469;SDS011;50854;48.538;14.352;2023-05-08T15:36:53;7.07;;;3.50;;
64469;SDS011;50854;48.538;14.352;2023-05-08T15:37:54;6.17;;;3.17;;
64469;SDS011;50854;48.538;14.352;2023-05-08T15:38:54;4.47;;;2.83;;
64469;SDS011;50854;48.538;14.352;2023-05-08T15:39:54;4.23;;;3.23;;
64469;SDS011;50854;48.538;14.352;2023-05-08T15:40:55;5.18;;;3.40;;
64469;SDS011;50854;48.538;14.352;2023-05-08T15:41:55;11.53;;;3.57;;
64469;SDS011;50854;48.538;14.352;2023-05-08T15:42:56;5.67;;;3.27;;
64469;SDS011;50854;48.538;14.352;2023-05-08T15:43:56;5.33;;;3.43;;
64469;SDS011;50854;48.538;14.352;2023-05-08T15:44:56;6.40;;;4.10;;
64469;SDS011;50854;48.538;14.352;2023-05-08T15:45:57;19.30;;;4.10;;
64469;SDS011;50854;48.538;14.352;2023-05-08T15:46:57;3.77;;;3.27;;
64469;SDS011;50854;48.538;14.352;2023-05-08T15:47:57;7.65;;;3.28;;
64469;SDS011;50854;48.538;14.352;2023-05-08T15:48:58;3.53;;;2.97;;
64469;SDS011;50854;48.538;14.352;2023-05-08T15:49:58;6.57;;;3.30;;
64469;SDS011;50854;48.538;14.352;2023-05-08T15:50:58;4.63;;;3.67;;
64469;SDS011;50854;48.538;14.352;2023-05-08T15:51:58;12.10;;;5.53;;
64469;SDS011;50854;48.538;14.352;2023-05-08T15:52:59;4.20;;;3.30;;
64469;SDS011;50854;48.538;14.352;2023-05-08T15:53:59;5.30;;;3.50;;
64469;SDS011;50854;48.538;14.352;2023-05-08T15:54:59;9.67;;;4.00;;
64469;SDS011;50854;48.538;14.352;2023-05-08T15:56:00;9.47;;;2.90;;
64469;SDS011;50854;48.538;14.352;2023-05-08T15:57:00;7.43;;;3.40;;
64469;SDS011;50854;48.538;14.352;2023-05-08T15:58:00;4.53;;;3.10;;
64469;SDS011;50854;48.538;14.352;2023-05-08T15:59:01;4.53;;;3.20;;
64469;SDS011;50854;48.538;14.352;2023-05-08T16:00:01;3.87;;;2.97;;
64469;SDS011;50854;48.538;14.352;2023-05-08T16:01:01;7.38;;;3.13;;
64469;SDS011;50854;48.538;14.352;2023-05-08T16:02:03;6.90;;;3.28;;
64469;SDS011;50854;48.538;14.352;2023-05-08T16:03:04;7.30;;;4.67;;
64469;SDS011;50854;48.538;14.352;2023-05-08T16:04:04;6.40;;;3.50;;
64469;SDS011;50854;48.538;14.352;2023-05-08T16:05:04;23.77;;;3.80;;
64469;SDS011;50854;48.538;14.352;2023-05-08T16:06:05;5.18;;;2.80;;
64469;SDS011;50854;48.538;14.352;2023-05-08T16:07:05;5.47;;;2.83;;
64469;SDS011;50854;48.538;14.352;2023-05-08T16:08:05;5.67;;;3.33;;
64469;SDS011;50854;48.538;14.352;2023-05-08T16:10:08;4.55;;;2.78;;
64469;SDS011;50854;48.538;14.352;2023-05-08T16:11:08;4.50;;;3.20;;
64469;SDS011;50854;48.538;14.352;2023-05-08T16:12:08;4.90;;;3.10;;
64469;SDS011;50854;48.538;14.352;2023-05-08T16:13:09;10.93;;;3.67;;
64469;SDS011;50854;48.538;14.352;2023-05-08T16:14:09;7.50;;;3.00;;
64469;SDS011;50854;48.538;14.352;2023-05-08T16:15:09;5.53;;;2.63;;
64469;SDS011;50854;48.538;14.352;2023-05-08T16:16:09;5.87;;;3.00;;
64469;SDS011;50854;48.538;14.352;2023-05-08T16:17:10;9.37;;;3.13;;
64469;SDS011;50854;48.538;14.352;2023-05-08T16:18:10;5.07;;;2.90;;
64469;SDS011;50854;48.538;14.352;2023-05-08T16:19:10;3.43;;;2.80;;
64469;SDS011;50854;48.538;14.352;2023-05-08T16:20:11;17.37;;;2.93;;
64469;SDS011;50854;48.538;14.352;2023-05-08T16:21:11;20.48;;;3.20;;
64469;SDS011;50854;48.538;14.352;2023-05-08T16:22:12;4.53;;;2.90;;
64469;SDS011;50854;48.538;14.352;2023-05-08T16:23:12;3.60;;;2.70;;
64469;SDS011;50854;48.538;14.352;2023-05-08T16:25:13;3.67;;;2.40;;
64469;SDS011;50854;48.538;14.352;2023-05-08T16:26:14;2.93;;;2.60;;
64469;SDS011;50854;48.538;14.352;2023-05-08T16:28:15;25.67;;;3.85;;
64469;SDS011;50854;48.538;14.352;2023-05-08T16:29:16;4.57;;;2.87;;
64469;SDS011;50854;48.538;14.352;2023-05-08T16:30:16;3.57;;;2.70;;
64469;SDS011;50854;48.538;14.352;2023-05-08T16:31:16;3.85;;;2.75;;
64469;SDS011;50854;48.538;14.352;2023-05-08T16:32:17;5.73;;;2.70;;
64469;SDS011;50854;48.538;14.352;2023-05-08T16:33:17;7.23;;;3.33;;
64469;SDS011;50854;48.538;14.352;2023-05-08T16:34:17;5.47;;;2.80;;
64469;SDS011;50854;48.538;14.352;2023-05-08T16:35:17;4.03;;;2.90;;
64469;SDS011;50854;48.538;14.352;2023-05-08T16:36:18;5.32;;;2.60;;
64469;SDS011;50854;48.538;14.352;2023-05-08T16:37:18;9.70;;;3.37;;
64469;SDS011;50854;48.538;14.352;2023-05-08T16:38:18;6.20;;;3.00;;
64469;SDS011;50854;48.538;14.352;2023-05-08T16:39:19;4.13;;;2.80;;
64469;SDS011;50854;48.538;14.352;2023-05-08T16:40:19;13.13;;;3.10;;
64469;SDS011;50854;48.538;14.352;2023-05-08T16:41:19;4.27;;;2.93;;
64469;SDS011;50854;48.538;14.352;2023-05-08T16:42:20;3.60;;;2.80;;
64469;SDS011;50854;48.538;14.352;2023-05-08T16:43:20;4.77;;;2.63;;
64469;SDS011;50854;48.538;14.352;2023-05-08T16:44:20;4.03;;;2.70;;
64469;SDS011;50854;48.538;14.352;2023-05-08T16:45:21;3.63;;;2.70;;
64469;SDS011;50854;48.538;14.352;2023-05-08T16:46:21;4.07;;;2.83;;
64469;SDS011;50854;48.538;14.352;2023-05-08T16:47:21;5.27;;;2.80;;
64469;SDS011;50854;48.538;14.352;2023-05-08T16:48:21;7.30;;;3.10;;
64469;SDS011;50854;48.538;14.352;2023-05-08T16:49:22;5.07;;;3.03;;
64469;SDS011;50854;48.538;14.352;2023-05-08T16:50:22;3.67;;;2.60;;
64469;SDS011;50854;48.538;14.352;2023-05-08T16:51:22;6.70;;;3.50;;
64469;SDS011;50854;48.538;14.352;2023-05-08T16:52:22;8.43;;;3.20;;
64469;SDS011;50854;48.538;14.352;2023-05-08T16:53:23;4.80;;;3.17;;
64469;SDS011;50854;48.538;14.352;2023-05-08T16:54:26;4.10;;;3.17;;
64469;SDS011;50854;48.538;14.352;2023-05-08T16:55:26;6.87;;;2.60;;
64469;SDS011;50854;48.538;14.352;2023-05-08T16:56:26;25.00;;;3.40;;
64469;SDS011;50854;48.538;14.352;2023-05-08T16:57:26;7.60;;;2.80;;
64469;SDS011;50854;48.538;14.352;2023-05-08T16:58:26;5.43;;;2.57;;
64469;SDS011;50854;48.538;14.352;2023-05-08T16:59:27;36.20;;;4.57;;
64469;SDS011;50854;48.538;14.352;2023-05-08T17:00:27;11.60;;;3.13;;
64469;SDS011;50854;48.538;14.352;2023-05-08T17:01:27;6.37;;;3.07;;
64469;SDS011;50854;48.538;14.352;2023-05-08T17:02:28;5.83;;;2.93;;
64469;SDS011;50854;48.538;14.352;2023-05-08T17:03:28;5.70;;;3.00;;
64469;SDS011;50854;48.538;14.352;2023-05-08T17:04:28;4.10;;;2.90;;
64469;SDS011;50854;48.538;14.352;2023-05-08T17:05:29;4.27;;;2.50;;
64469;SDS011;50854;48.538;14.352;2023-05-08T17:06:29;8.05;;;3.10;;
64469;SDS011;50854;48.538;14.352;2023-05-08T17:07:29;3.20;;;2.90;;
64469;SDS011;50854;48.538;14.352;2023-05-08T17:08:30;3.80;;;2.90;;
64469;SDS011;50854;48.538;14.352;2023-05-08T17:09:30;3.60;;;2.83;;
64469;SDS011;50854;48.538;14.352;2023-05-08T17:10:30;3.50;;;2.87;;
64469;SDS011;50854;48.538;14.352;2023-05-08T17:11:31;6.80;;;3.40;;
64469;SDS011;50854;48.538;14.352;2023-05-08T17:12:31;4.10;;;2.70;;
64469;SDS011;50854;48.538;14.352;2023-05-08T17:13:31;7.57;;;3.17;;
64469;SDS011;50854;48.538;14.352;2023-05-08T17:14:31;6.20;;;3.17;;
64469;SDS011;50854;48.538;14.352;2023-05-08T17:15:32;10.43;;;2.90;;
64469;SDS011;50854;48.538;14.352;2023-05-08T17:16:32;7.97;;;3.03;;
64469;SDS011;50854;48.538;14.352;2023-05-08T17:17:32;5.80;;;3.10;;
64469;SDS011;50854;48.538;14.352;2023-05-08T17:18:33;3.83;;;3.03;;
64469;SDS011;50854;48.538;14.352;2023-05-08T17:19:33;10.80;;;3.07;;
64469;SDS011;50854;48.538;14.352;2023-05-08T17:20:33;5.80;;;2.93;;
64469;SDS011;50854;48.538;14.352;2023-05-08T17:21:39;5.45;;;3.20;;
64469;SDS011;50854;48.538;14.352;2023-05-08T17:22:39;4.80;;;3.07;;
64469;SDS011;50854;48.538;14.352;2023-05-08T17:23:40;4.60;;;3.10;;
64469;SDS011;50854;48.538;14.352;2023-05-08T17:24:40;6.90;;;3.17;;
64469;SDS011;50854;48.538;14.352;2023-05-08T17:25:40;4.27;;;2.90;;
64469;SDS011;50854;48.538;14.352;2023-05-08T17:26:40;4.37;;;3.00;;
64469;SDS011;50854;48.538;14.352;2023-05-08T17:27:41;6.07;;;3.45;;
64469;SDS011;50854;48.538;14.352;2023-05-08T17:28:41;4.50;;;3.33;;
64469;SDS011;50854;48.538;14.352;2023-05-08T17:29:41;4.43;;;2.97;;
64469;SDS011;50854;48.538;14.352;2023-05-08T17:30:41;8.37;;;3.50;;
64469;SDS011;50854;48.538;14.352;2023-05-08T17:31:42;3.40;;;3.00;;
64469;SDS011;50854;48.538;14.352;2023-05-08T17:32:42;3.80;;;2.63;;
64469;SDS011;50854;48.538;14.352;2023-05-08T17:33:42;3.10;;;2.70;;
64469;SDS011;50854;48.538;14.352;2023-05-08T17:34:42;3.50;;;2.53;;
64469;SDS011;50854;48.538;14.352;2023-05-08T17:35:43;6.63;;;3.23;;
64469;SDS011;50854;48.538;14.352;2023-05-08T17:36:43;4.00;;;2.70;;
64469;SDS011;50854;48.538;14.352;2023-05-08T17:37:43;4.47;;;3.43;;
64469;SDS011;50854;48.538;14.352;2023-05-08T17:38:43;4.67;;;2.83;;
64469;SDS011;50854;48.538;14.352;2023-05-08T17:39:45;9.27;;;2.65;;
64469;SDS011;50854;48.538;14.352;2023-05-08T17:40:45;4.00;;;2.60;;
64469;SDS011;50854;48.538;14.352;2023-05-08T17:41:49;3.65;;;2.38;;
64469;SDS011;50854;48.538;14.352;2023-05-08T17:42:50;6.07;;;2.80;;
64469;SDS011;50854;48.538;14.352;2023-05-08T17:43:51;8.10;;;2.70;;
64469;SDS011;50854;48.538;14.352;2023-05-08T17:44:51;6.03;;;2.85;;
64469;SDS011;50854;48.538;14.352;2023-05-08T17:45:51;8.33;;;2.90;;
64469;SDS011;50854;48.538;14.352;2023-05-08T17:46:51;4.60;;;2.90;;
64469;SDS011;50854;48.538;14.352;2023-05-08T17:47:52;5.63;;;2.73;;
64469;SDS011;50854;48.538;14.352;2023-05-08T17:48:52;6.80;;;2.60;;
64469;SDS011;50854;48.538;14.352;2023-05-08T17:49:52;8.47;;;2.83;;
64469;SDS011;50854;48.538;14.352;2023-05-08T17:50:52;3.33;;;2.77;;
64469;SDS011;50854;48.538;14.352;2023-05-08T17:51:53;3.17;;;2.80;;
64469;SDS011;50854;48.538;14.352;2023-05-08T17:52:53;3.50;;;2.80;;
64469;SDS011;50854;48.538;14.352;2023-05-08T17:53:53;5.07;;;2.73;;
64469;SDS011;50854;48.538;14.352;2023-05-08T17:54:55;3.80;;;2.67;;
64469;SDS011;50854;48.538;14.352;2023-05-08T17:55:55;5.57;;;2.53;;
64469;SDS011;50854;48.538;14.352;2023-05-08T17:56:56;4.37;;;2.77;;
64469;SDS011;50854;48.538;14.352;2023-05-08T17:57:56;3.93;;;2.90;;
64469;SDS011;50854;48.538;14.352;2023-05-08T17:58:57;4.35;;;2.63;;
64469;SDS011;50854;48.538;14.352;2023-05-08T17:59:57;4.63;;;2.60;;
64469;SDS011;50854;48.538;14.352;2023-05-08T18:00:57;5.73;;;3.77;;
64469;SDS011;50854;48.538;14.352;2023-05-08T18:01:58;5.53;;;3.00;;
64469;SDS011;50854;48.538;14.352;2023-05-08T18:02:58;2.90;;;2.50;;
64469;SDS011;50854;48.538;14.352;2023-05-08T18:03:58;3.77;;;2.87;;
64469;SDS011;50854;48.538;14.352;2023-05-08T18:04:58;4.57;;;2.53;;
64469;SDS011;50854;48.538;14.352;2023-05-08T18:05:59;8.43;;;2.43;;
64469;SDS011;50854;48.538;14.352;2023-05-08T18:06:59;4.13;;;2.43;;
64469;SDS011;50854;48.538;14.352;2023-05-08T18:08:03;4.18;;;2.40;;
64469;SDS011;50854;48.538;14.352;2023-05-08T18:09:03;4.03;;;2.80;;
64469;SDS011;50854;48.538;14.352;2023-05-08T18:10:04;3.10;;;2.40;;
64469;SDS011;50854;48.538;14.352;2023-05-08T18:11:05;4.05;;;2.47;;
64469;SDS011;50854;48.538;14.352;2023-05-08T18:12:05;3.27;;;2.63;;
64469;SDS011;50854;48.538;14.352;2023-05-08T18:13:05;3.33;;;1.93;;
64469;SDS011;50854;48.538;14.352;2023-05-08T18:14:06;3.83;;;2.40;;
64469;SDS011;50854;48.538;14.352;2023-05-08T18:15:06;3.23;;;2.50;;
64469;SDS011;50854;48.538;14.352;2023-05-08T18:16:06;2.65;;;2.30;;
64469;SDS011;50854;48.538;14.352;2023-05-08T18:17:07;3.53;;;2.50;;
64469;SDS011;50854;48.538;14.352;2023-05-08T18:18:09;4.13;;;2.40;;
64469;SDS011;50854;48.538;14.352;2023-05-08T18:19:09;4.60;;;2.47;;